THY9RS LTFM-EGLL
Flight info
| Callsign | THY9RS |
|---|---|
| Flight time | 3h 22m |
| Altitude | 38000 |
| Route | TUDBU1D/35L TUDBU Q26 ETUBA DCT NAVOD DCT INVED DCT BEGLA DCT DEXIT DCT INBED DCT BOMBI DCT ADKUV DCT BUB L608 LOGAN |
| Aircraft | B38M/M-SDE1FGHILORVWXY/HB1 |
Departure
| Time | 2026-05-07 15:12 |
|---|---|
| Airport | İstanbul Airport (LTFM) |
Arrival
| Time | 2026-05-07 18:34 |
|---|---|
| Airport | London Heathrow Airport (EGLL) |
| Time | Latitude | Longitude | Altitude | Speed | Heading |
|---|---|---|---|---|---|
| 2026-05-07 14:50 | 41.26246 | 28.73639 | 336 ft | 0 kts | 71° |
| 2026-05-07 15:03 | 41.26243 | 28.73628 | 336 ft | 4 kts | 71° |
| 2026-05-07 15:03 | 41.26234 | 28.73594 | 334 ft | 4 kts | 71° |
| 2026-05-07 15:03 | 41.26228 | 28.73565 | 336 ft | 4 kts | 84° |
| 2026-05-07 15:03 | 41.26232 | 28.73534 | 335 ft | 4 kts | 128° |
| 2026-05-07 15:04 | 41.26253 | 28.73513 | 335 ft | 4 kts | 155° |
| 2026-05-07 15:04 | 41.26277 | 28.73500 | 336 ft | 4 kts | 161° |
| 2026-05-07 15:04 | 41.26288 | 28.73495 | 336 ft | 2 kts | 161° |
| 2026-05-07 15:07 | 41.26286 | 28.73496 | 336 ft | 1 kts | 162° |
| 2026-05-07 15:07 | 41.26268 | 28.73501 | 336 ft | 4 kts | 175° |
| 2026-05-07 15:08 | 41.26232 | 28.73475 | 335 ft | 7 kts | 236° |
| 2026-05-07 15:08 | 41.26220 | 28.73403 | 334 ft | 9 kts | 264° |
| 2026-05-07 15:08 | 41.26217 | 28.73317 | 332 ft | 10 kts | 270° |
| 2026-05-07 15:08 | 41.26219 | 28.73223 | 332 ft | 10 kts | 269° |
| 2026-05-07 15:09 | 41.26217 | 28.73122 | 332 ft | 12 kts | 268° |
| 2026-05-07 15:09 | 41.26216 | 28.73010 | 333 ft | 10 kts | 269° |
| 2026-05-07 15:09 | 41.26215 | 28.72976 | 336 ft | 0 kts | 269° |
| 2026-05-07 15:09 | 41.26215 | 28.72973 | 333 ft | 1 kts | 269° |
| 2026-05-07 15:10 | 41.26215 | 28.72950 | 336 ft | 4 kts | 269° |
| 2026-05-07 15:10 | 41.26214 | 28.72882 | 335 ft | 11 kts | 269° |
| 2026-05-07 15:10 | 41.26212 | 28.72769 | 335 ft | 13 kts | 269° |
| 2026-05-07 15:10 | 41.26211 | 28.72640 | 336 ft | 15 kts | 269° |
| 2026-05-07 15:11 | 41.26228 | 28.72531 | 335 ft | 10 kts | 335° |
| 2026-05-07 15:11 | 41.26276 | 28.72522 | 336 ft | 7 kts | 356° |
| 2026-05-07 15:11 | 41.26332 | 28.72520 | 336 ft | 12 kts | 359° |
| 2026-05-07 15:11 | 41.26668 | 28.72516 | 335 ft | 84 kts | 359° |
| 2026-05-07 15:12 | 41.27156 | 28.72507 | 333 ft | 126 kts | 359° |
| 2026-05-07 15:12 | 41.28209 | 28.72483 | 379 ft | 172 kts | 359° |
| 2026-05-07 15:12 | 41.29455 | 28.72448 | 882 ft | 187 kts | 359° |
| 2026-05-07 15:12 | 41.31161 | 28.72426 | 2061 ft | 178 kts | 1° |
| 2026-05-07 15:13 | 41.32018 | 28.72442 | 2380 ft | 194 kts | 1° |
| 2026-05-07 15:13 | 41.33456 | 28.72467 | 2792 ft | 221 kts | 0° |
| 2026-05-07 15:13 | 41.35079 | 28.72491 | 3277 ft | 244 kts | 0° |
| 2026-05-07 15:13 | 41.36812 | 28.72514 | 4043 ft | 257 kts | 360° |
| 2026-05-07 15:14 | 41.38613 | 28.72162 | 4744 ft | 266 kts | 336° |
| 2026-05-07 15:14 | 41.40289 | 28.71124 | 5756 ft | 269 kts | 334° |
| 2026-05-07 15:14 | 41.42007 | 28.70069 | 6636 ft | 273 kts | 334° |
| 2026-05-07 15:14 | 41.43736 | 28.68990 | 7567 ft | 277 kts | 334° |
| 2026-05-07 15:15 | 41.45491 | 28.67884 | 8452 ft | 281 kts | 333° |
| 2026-05-07 15:15 | 41.47266 | 28.66758 | 9305 ft | 285 kts | 333° |
| 2026-05-07 15:15 | 41.49065 | 28.65611 | 10145 ft | 289 kts | 333° |
| 2026-05-07 15:15 | 41.50911 | 28.64431 | 10672 ft | 305 kts | 334° |
| 2026-05-07 15:16 | 41.52889 | 28.63165 | 11068 ft | 323 kts | 334° |
| 2026-05-07 15:16 | 41.54953 | 28.61844 | 11617 ft | 335 kts | 334° |
| 2026-05-07 15:16 | 41.57033 | 28.60430 | 12430 ft | 336 kts | 326° |
| 2026-05-07 15:16 | 41.58754 | 28.58314 | 13182 ft | 339 kts | 312° |
| 2026-05-07 15:17 | 41.60365 | 28.55986 | 13925 ft | 343 kts | 313° |
| 2026-05-07 15:17 | 41.61988 | 28.53638 | 14679 ft | 346 kts | 313° |
| 2026-05-07 15:17 | 41.63626 | 28.51250 | 15394 ft | 350 kts | 313° |
| 2026-05-07 15:17 | 41.65275 | 28.48839 | 16115 ft | 353 kts | 312° |
| 2026-05-07 15:18 | 41.66878 | 28.46336 | 16776 ft | 357 kts | 303° |
| 2026-05-07 15:18 | 41.67984 | 28.43360 | 17453 ft | 359 kts | 295° |
| 2026-05-07 15:18 | 41.69018 | 28.40307 | 18047 ft | 363 kts | 295° |
| 2026-05-07 15:18 | 41.70051 | 28.37210 | 18673 ft | 366 kts | 295° |
| 2026-05-07 15:19 | 41.71085 | 28.34075 | 19266 ft | 370 kts | 294° |
| 2026-05-07 15:19 | 41.72120 | 28.30914 | 19860 ft | 372 kts | 294° |
| 2026-05-07 15:19 | 41.73147 | 28.27771 | 20427 ft | 375 kts | 294° |
| 2026-05-07 15:19 | 41.74193 | 28.24560 | 20984 ft | 378 kts | 294° |
| 2026-05-07 15:20 | 41.75246 | 28.21325 | 21508 ft | 381 kts | 294° |
| 2026-05-07 15:20 | 41.76307 | 28.18060 | 22044 ft | 383 kts | 294° |
| 2026-05-07 15:20 | 41.77375 | 28.14771 | 22563 ft | 386 kts | 294° |
| 2026-05-07 15:20 | 41.78448 | 28.11462 | 23051 ft | 389 kts | 294° |
| 2026-05-07 15:21 | 41.79636 | 28.08197 | 23512 ft | 390 kts | 304° |
| 2026-05-07 15:21 | 41.81256 | 28.05280 | 24004 ft | 392 kts | 307° |
| 2026-05-07 15:21 | 41.82891 | 28.02334 | 24427 ft | 395 kts | 307° |
| 2026-05-07 15:21 | 41.84544 | 27.99373 | 24893 ft | 397 kts | 307° |
| 2026-05-07 15:22 | 41.86206 | 27.96405 | 25323 ft | 400 kts | 307° |
| 2026-05-07 15:22 | 41.87884 | 27.93410 | 25748 ft | 402 kts | 307° |
| 2026-05-07 15:22 | 41.89570 | 27.90400 | 26167 ft | 405 kts | 308° |
| 2026-05-07 15:22 | 41.91264 | 27.87371 | 26595 ft | 407 kts | 308° |
| 2026-05-07 15:23 | 41.92966 | 27.84327 | 26987 ft | 409 kts | 307° |
| 2026-05-07 15:23 | 41.94675 | 27.81265 | 27365 ft | 411 kts | 307° |
| 2026-05-07 15:23 | 41.96405 | 27.78190 | 27739 ft | 413 kts | 310° |
| 2026-05-07 15:23 | 41.98379 | 27.75380 | 28086 ft | 415 kts | 315° |
| 2026-05-07 15:24 | 42.00404 | 27.72599 | 28438 ft | 417 kts | 315° |
| 2026-05-07 15:24 | 42.02438 | 27.69812 | 28789 ft | 419 kts | 315° |
| 2026-05-07 15:24 | 42.04483 | 27.67009 | 29120 ft | 421 kts | 315° |
| 2026-05-07 15:24 | 42.06542 | 27.64188 | 29467 ft | 423 kts | 315° |
| 2026-05-07 15:25 | 42.08603 | 27.61360 | 29783 ft | 425 kts | 315° |
| 2026-05-07 15:25 | 42.10678 | 27.58512 | 30099 ft | 427 kts | 315° |
| 2026-05-07 15:25 | 42.12758 | 27.55654 | 30417 ft | 428 kts | 315° |
| 2026-05-07 15:25 | 42.14850 | 27.52776 | 30699 ft | 431 kts | 315° |
| 2026-05-07 15:26 | 42.16947 | 27.49887 | 30994 ft | 432 kts | 314° |
| 2026-05-07 15:26 | 42.19054 | 27.46983 | 31278 ft | 434 kts | 314° |
| 2026-05-07 15:26 | 42.21169 | 27.44064 | 31548 ft | 437 kts | 314° |
| 2026-05-07 15:26 | 42.23297 | 27.41124 | 31857 ft | 438 kts | 314° |
| 2026-05-07 15:27 | 42.25426 | 27.38180 | 32223 ft | 438 kts | 314° |
| 2026-05-07 15:27 | 42.27521 | 27.35281 | 32602 ft | 437 kts | 314° |
| 2026-05-07 15:27 | 42.29639 | 27.32348 | 32955 ft | 436 kts | 314° |
| 2026-05-07 15:27 | 42.31754 | 27.29413 | 33303 ft | 435 kts | 314° |
| 2026-05-07 15:28 | 42.33861 | 27.26487 | 33643 ft | 435 kts | 314° |
| 2026-05-07 15:28 | 42.35969 | 27.23558 | 33985 ft | 434 kts | 314° |
| 2026-05-07 15:28 | 42.38070 | 27.20634 | 34313 ft | 433 kts | 314° |
| 2026-05-07 15:28 | 42.40169 | 27.17711 | 34620 ft | 433 kts | 314° |
| 2026-05-07 15:29 | 42.42266 | 27.14787 | 34903 ft | 433 kts | 314° |
| 2026-05-07 15:29 | 42.44359 | 27.11867 | 35178 ft | 433 kts | 314° |
| 2026-05-07 15:29 | 42.46451 | 27.08944 | 35458 ft | 432 kts | 314° |
| 2026-05-07 15:29 | 42.48542 | 27.06021 | 35717 ft | 432 kts | 314° |
| 2026-05-07 15:30 | 42.50631 | 27.03096 | 35970 ft | 432 kts | 314° |
| 2026-05-07 15:30 | 42.52716 | 27.00174 | 36203 ft | 431 kts | 314° |
| 2026-05-07 15:30 | 42.54804 | 26.97245 | 36421 ft | 432 kts | 314° |
| 2026-05-07 15:30 | 42.56890 | 26.94316 | 36615 ft | 432 kts | 314° |
| 2026-05-07 15:31 | 42.58974 | 26.91388 | 36899 ft | 430 kts | 313° |
| 2026-05-07 15:31 | 42.61043 | 26.88477 | 37201 ft | 427 kts | 313° |
| 2026-05-07 15:31 | 42.63097 | 26.85583 | 37464 ft | 425 kts | 313° |
| 2026-05-07 15:31 | 42.65147 | 26.82693 | 37672 ft | 424 kts | 313° |
| 2026-05-07 15:32 | 42.67190 | 26.79810 | 37853 ft | 424 kts | 313° |
| 2026-05-07 15:32 | 42.69235 | 26.76921 | 38015 ft | 424 kts | 313° |
| 2026-05-07 15:32 | 42.73335 | 26.71119 | 38081 ft | 427 kts | 313° |
| 2026-05-07 15:33 | 42.77445 | 26.65296 | 38072 ft | 426 kts | 313° |
| 2026-05-07 15:33 | 42.81499 | 26.59408 | 38062 ft | 426 kts | 306° |
| 2026-05-07 15:34 | 42.84748 | 26.52673 | 38044 ft | 426 kts | 303° |
| 2026-05-07 15:34 | 42.87963 | 26.45953 | 38065 ft | 427 kts | 303° |
| 2026-05-07 15:35 | 42.91189 | 26.39172 | 38058 ft | 426 kts | 302° |
| 2026-05-07 15:35 | 42.94414 | 26.32377 | 38051 ft | 426 kts | 302° |
| 2026-05-07 15:36 | 42.97633 | 26.25581 | 38048 ft | 426 kts | 302° |
| 2026-05-07 15:36 | 43.00848 | 26.18775 | 38038 ft | 427 kts | 302° |
| 2026-05-07 15:37 | 43.04060 | 26.11960 | 38039 ft | 426 kts | 302° |
| 2026-05-07 15:37 | 43.07269 | 26.05136 | 38030 ft | 426 kts | 302° |
| 2026-05-07 15:38 | 43.10470 | 25.98314 | 38028 ft | 426 kts | 302° |
| 2026-05-07 15:38 | 43.13674 | 25.91468 | 38030 ft | 427 kts | 302° |
| 2026-05-07 15:39 | 43.16875 | 25.84614 | 38015 ft | 428 kts | 302° |
| 2026-05-07 15:39 | 43.20078 | 25.77739 | 38017 ft | 428 kts | 302° |
| 2026-05-07 15:40 | 43.23277 | 25.70858 | 38016 ft | 428 kts | 302° |
| 2026-05-07 15:40 | 43.26473 | 25.63966 | 38018 ft | 428 kts | 302° |
| 2026-05-07 15:41 | 43.29664 | 25.57069 | 38018 ft | 428 kts | 302° |
| 2026-05-07 15:41 | 43.32850 | 25.50165 | 38019 ft | 428 kts | 302° |
| 2026-05-07 15:42 | 43.36034 | 25.43250 | 38032 ft | 428 kts | 301° |
| 2026-05-07 15:42 | 43.39216 | 25.36325 | 38024 ft | 428 kts | 301° |
| 2026-05-07 15:43 | 43.42393 | 25.29393 | 38026 ft | 428 kts | 301° |
| 2026-05-07 15:43 | 43.45564 | 25.22457 | 38025 ft | 428 kts | 301° |
| 2026-05-07 15:44 | 43.48735 | 25.15505 | 38025 ft | 429 kts | 301° |
| 2026-05-07 15:44 | 43.51903 | 25.08545 | 38027 ft | 429 kts | 301° |
| 2026-05-07 15:45 | 43.55070 | 25.01566 | 38030 ft | 430 kts | 301° |
| 2026-05-07 15:45 | 43.58214 | 24.94625 | 38033 ft | 430 kts | 301° |
| 2026-05-07 15:46 | 43.62956 | 24.84126 | 38027 ft | 430 kts | 301° |
| 2026-05-07 15:47 | 43.66113 | 24.77112 | 38036 ft | 430 kts | 301° |
| 2026-05-07 15:47 | 43.69270 | 24.70085 | 38035 ft | 431 kts | 301° |
| 2026-05-07 15:48 | 43.72429 | 24.63040 | 38047 ft | 431 kts | 301° |
| 2026-05-07 15:48 | 43.75620 | 24.56015 | 38038 ft | 432 kts | 306° |
| 2026-05-07 15:49 | 43.79508 | 24.49668 | 38032 ft | 434 kts | 309° |
| 2026-05-07 15:49 | 43.83421 | 24.43322 | 38046 ft | 433 kts | 309° |
| 2026-05-07 15:50 | 43.87342 | 24.36969 | 38046 ft | 434 kts | 309° |
| 2026-05-07 15:50 | 43.91265 | 24.30600 | 38045 ft | 434 kts | 309° |
| 2026-05-07 15:51 | 43.95182 | 24.24228 | 38045 ft | 434 kts | 309° |
| 2026-05-07 15:51 | 43.99098 | 24.17843 | 38044 ft | 434 kts | 309° |
| 2026-05-07 15:52 | 44.03009 | 24.11452 | 38045 ft | 434 kts | 309° |
| 2026-05-07 15:52 | 44.06919 | 24.05048 | 38046 ft | 435 kts | 309° |
| 2026-05-07 15:53 | 44.10826 | 23.98634 | 38045 ft | 434 kts | 309° |
| 2026-05-07 15:53 | 44.14733 | 23.92207 | 38042 ft | 434 kts | 309° |
| 2026-05-07 15:54 | 44.18635 | 23.85773 | 38044 ft | 435 kts | 309° |
| 2026-05-07 15:54 | 44.22534 | 23.79330 | 38045 ft | 435 kts | 309° |
| 2026-05-07 15:55 | 44.26426 | 23.72883 | 38046 ft | 435 kts | 308° |
| 2026-05-07 15:55 | 44.30321 | 23.66417 | 38045 ft | 435 kts | 308° |
| 2026-05-07 15:56 | 44.34210 | 23.59946 | 38046 ft | 435 kts | 308° |
| 2026-05-07 15:56 | 44.38096 | 23.53466 | 38045 ft | 435 kts | 308° |
| 2026-05-07 15:57 | 44.41980 | 23.46975 | 38043 ft | 435 kts | 308° |
| 2026-05-07 15:57 | 44.45857 | 23.40479 | 38045 ft | 435 kts | 308° |
| 2026-05-07 15:58 | 44.49734 | 23.33970 | 38044 ft | 435 kts | 308° |
| 2026-05-07 15:58 | 44.52951 | 23.28557 | 38035 ft | 435 kts | 308° |
| 2026-05-07 15:59 | 44.56823 | 23.22030 | 38036 ft | 435 kts | 308° |
| 2026-05-07 15:59 | 44.60694 | 23.15488 | 38035 ft | 435 kts | 308° |
| 2026-05-07 16:00 | 44.64557 | 23.08944 | 38037 ft | 435 kts | 308° |
| 2026-05-07 16:00 | 44.68421 | 23.02384 | 38033 ft | 436 kts | 308° |
| 2026-05-07 16:01 | 44.72281 | 22.95817 | 38028 ft | 436 kts | 308° |
| 2026-05-07 16:01 | 44.76134 | 22.89244 | 38025 ft | 436 kts | 308° |
| 2026-05-07 16:02 | 44.79983 | 22.82664 | 38028 ft | 436 kts | 308° |
| 2026-05-07 16:02 | 44.83841 | 22.76053 | 38021 ft | 436 kts | 308° |
| 2026-05-07 16:03 | 44.87690 | 22.69444 | 38018 ft | 436 kts | 308° |
| 2026-05-07 16:03 | 44.91532 | 22.62830 | 38018 ft | 436 kts | 307° |
| 2026-05-07 16:04 | 44.95371 | 22.56205 | 38016 ft | 436 kts | 307° |
| 2026-05-07 16:04 | 44.99205 | 22.49574 | 38019 ft | 436 kts | 307° |
| 2026-05-07 16:05 | 45.03014 | 22.42970 | 38009 ft | 436 kts | 307° |
| 2026-05-07 16:05 | 45.06841 | 22.36321 | 38008 ft | 436 kts | 307° |
| 2026-05-07 16:06 | 45.10668 | 22.29655 | 38005 ft | 436 kts | 307° |
| 2026-05-07 16:06 | 45.14490 | 22.22982 | 38009 ft | 436 kts | 307° |
| 2026-05-07 16:07 | 45.18313 | 22.16291 | 37999 ft | 437 kts | 307° |
| 2026-05-07 16:07 | 45.22132 | 22.09593 | 37998 ft | 436 kts | 307° |
| 2026-05-07 16:08 | 45.25945 | 22.02889 | 37999 ft | 437 kts | 307° |
| 2026-05-07 16:08 | 45.29754 | 21.96175 | 37999 ft | 437 kts | 307° |
| 2026-05-07 16:09 | 45.33563 | 21.89446 | 37997 ft | 437 kts | 307° |
| 2026-05-07 16:09 | 45.37373 | 21.82700 | 38002 ft | 437 kts | 307° |
| 2026-05-07 16:10 | 45.41150 | 21.75997 | 37997 ft | 437 kts | 307° |
| 2026-05-07 16:10 | 45.44944 | 21.69244 | 38000 ft | 437 kts | 307° |
| 2026-05-07 16:11 | 45.48739 | 21.62475 | 37999 ft | 437 kts | 306° |
| 2026-05-07 16:11 | 45.52530 | 21.55698 | 37999 ft | 437 kts | 306° |
| 2026-05-07 16:12 | 45.56317 | 21.48911 | 38000 ft | 437 kts | 306° |
| 2026-05-07 16:12 | 45.60102 | 21.42111 | 37998 ft | 437 kts | 306° |
| 2026-05-07 16:13 | 45.63881 | 21.35307 | 37992 ft | 437 kts | 306° |
| 2026-05-07 16:13 | 45.67654 | 21.28494 | 37999 ft | 437 kts | 306° |
| 2026-05-07 16:14 | 45.71427 | 21.21667 | 37991 ft | 437 kts | 306° |
| 2026-05-07 16:14 | 45.75192 | 21.14836 | 37990 ft | 437 kts | 306° |
| 2026-05-07 16:15 | 45.78954 | 21.07996 | 37993 ft | 437 kts | 306° |
| 2026-05-07 16:15 | 45.82711 | 21.01147 | 37999 ft | 437 kts | 306° |
| 2026-05-07 16:16 | 45.86466 | 20.94285 | 38000 ft | 437 kts | 306° |
| 2026-05-07 16:16 | 45.90216 | 20.87417 | 37999 ft | 437 kts | 306° |
| 2026-05-07 16:17 | 45.93939 | 20.80579 | 37999 ft | 437 kts | 306° |
| 2026-05-07 16:17 | 45.97710 | 20.73645 | 38003 ft | 438 kts | 306° |
| 2026-05-07 16:18 | 46.01427 | 20.66791 | 38007 ft | 437 kts | 306° |
| 2026-05-07 16:18 | 46.05171 | 20.59871 | 38010 ft | 438 kts | 306° |
| 2026-05-07 16:19 | 46.08913 | 20.52938 | 38010 ft | 438 kts | 305° |
| 2026-05-07 16:19 | 46.12650 | 20.45998 | 38008 ft | 438 kts | 305° |
| 2026-05-07 16:20 | 46.16382 | 20.39045 | 38009 ft | 438 kts | 305° |
| 2026-05-07 16:20 | 46.20118 | 20.32101 | 38008 ft | 438 kts | 306° |
| 2026-05-07 16:21 | 46.23851 | 20.25153 | 38010 ft | 438 kts | 305° |
| 2026-05-07 16:21 | 46.27578 | 20.18202 | 38007 ft | 438 kts | 305° |
| 2026-05-07 16:22 | 46.31302 | 20.11240 | 38009 ft | 438 kts | 305° |
| 2026-05-07 16:22 | 46.35025 | 20.04262 | 38010 ft | 438 kts | 305° |
| 2026-05-07 16:23 | 46.38744 | 19.97272 | 38015 ft | 438 kts | 305° |
| 2026-05-07 16:23 | 46.42458 | 19.90276 | 38017 ft | 438 kts | 305° |
| 2026-05-07 16:24 | 46.46173 | 19.83258 | 38018 ft | 438 kts | 305° |
| 2026-05-07 16:24 | 46.49881 | 19.76238 | 38017 ft | 438 kts | 305° |
| 2026-05-07 16:25 | 46.53586 | 19.69205 | 38018 ft | 439 kts | 305° |
| 2026-05-07 16:25 | 46.57288 | 19.62160 | 38017 ft | 439 kts | 304° |
| 2026-05-07 16:26 | 46.60959 | 19.55156 | 38012 ft | 439 kts | 304° |
| 2026-05-07 16:26 | 46.64653 | 19.48092 | 38017 ft | 439 kts | 304° |
| 2026-05-07 16:27 | 46.68345 | 19.41013 | 38021 ft | 439 kts | 304° |
| 2026-05-07 16:27 | 46.72032 | 19.33925 | 38017 ft | 439 kts | 304° |
| 2026-05-07 16:28 | 46.75718 | 19.26822 | 38018 ft | 439 kts | 304° |
| 2026-05-07 16:28 | 46.79397 | 19.19714 | 38018 ft | 439 kts | 304° |
| 2026-05-07 16:29 | 46.83073 | 19.12591 | 38009 ft | 440 kts | 304° |
| 2026-05-07 16:29 | 46.86748 | 19.05454 | 37998 ft | 439 kts | 304° |
| 2026-05-07 16:30 | 46.90418 | 18.98308 | 37991 ft | 439 kts | 304° |
| 2026-05-07 16:30 | 46.94084 | 18.91151 | 37994 ft | 439 kts | 304° |
| 2026-05-07 16:31 | 46.97743 | 18.83988 | 37995 ft | 439 kts | 304° |
| 2026-05-07 16:31 | 47.01400 | 18.76812 | 37998 ft | 440 kts | 304° |
| 2026-05-07 16:32 | 47.05056 | 18.69619 | 37999 ft | 440 kts | 304° |
| 2026-05-07 16:32 | 47.08707 | 18.62417 | 38001 ft | 440 kts | 304° |
| 2026-05-07 16:33 | 47.12357 | 18.55199 | 37998 ft | 441 kts | 304° |
| 2026-05-07 16:33 | 47.16001 | 18.47973 | 37990 ft | 440 kts | 303° |
| 2026-05-07 16:34 | 47.19641 | 18.40735 | 37989 ft | 440 kts | 303° |
| 2026-05-07 16:34 | 47.23280 | 18.33484 | 37991 ft | 441 kts | 303° |
| 2026-05-07 16:35 | 47.26914 | 18.26218 | 37986 ft | 440 kts | 303° |
| 2026-05-07 16:35 | 47.30546 | 18.18939 | 37983 ft | 441 kts | 303° |
| 2026-05-07 16:36 | 47.34166 | 18.11668 | 37979 ft | 441 kts | 303° |
| 2026-05-07 16:36 | 47.37768 | 18.04409 | 37980 ft | 441 kts | 303° |
| 2026-05-07 16:37 | 47.41389 | 17.97096 | 37978 ft | 442 kts | 303° |
| 2026-05-07 16:37 | 47.45011 | 17.89762 | 37975 ft | 442 kts | 303° |
| 2026-05-07 16:38 | 47.48626 | 17.82419 | 37978 ft | 442 kts | 303° |
| 2026-05-07 16:38 | 47.52235 | 17.75071 | 37960 ft | 442 kts | 303° |
| 2026-05-07 16:39 | 47.55840 | 17.67713 | 37953 ft | 441 kts | 303° |
| 2026-05-07 16:39 | 47.59441 | 17.60342 | 37966 ft | 442 kts | 303° |
| 2026-05-07 16:40 | 47.63038 | 17.52958 | 37969 ft | 442 kts | 303° |
| 2026-05-07 16:40 | 47.66633 | 17.45559 | 37972 ft | 442 kts | 303° |
| 2026-05-07 16:41 | 47.70222 | 17.38159 | 37959 ft | 442 kts | 303° |
| 2026-05-07 16:41 | 47.73808 | 17.30744 | 37964 ft | 442 kts | 303° |
| 2026-05-07 16:42 | 47.77391 | 17.23315 | 37967 ft | 442 kts | 303° |
| 2026-05-07 16:42 | 47.80972 | 17.15874 | 37971 ft | 442 kts | 302° |
| 2026-05-07 16:43 | 47.84051 | 17.08053 | 37992 ft | 435 kts | 290° |
| 2026-05-07 16:43 | 47.86501 | 16.99755 | 37958 ft | 438 kts | 291° |
| 2026-05-07 16:44 | 47.88938 | 16.91422 | 37962 ft | 439 kts | 291° |
| 2026-05-07 16:44 | 47.91365 | 16.83077 | 37981 ft | 439 kts | 290° |
| 2026-05-07 16:45 | 47.93789 | 16.74713 | 37983 ft | 440 kts | 290° |
| 2026-05-07 16:45 | 47.96210 | 16.66330 | 37989 ft | 440 kts | 290° |
| 2026-05-07 16:46 | 47.98608 | 16.57998 | 37988 ft | 440 kts | 290° |
| 2026-05-07 16:46 | 48.01018 | 16.49595 | 37987 ft | 441 kts | 290° |
| 2026-05-07 16:47 | 48.03426 | 16.41167 | 37994 ft | 442 kts | 290° |
| 2026-05-07 16:47 | 48.05839 | 16.32693 | 37987 ft | 443 kts | 290° |
| 2026-05-07 16:48 | 48.08244 | 16.24220 | 37987 ft | 442 kts | 290° |
| 2026-05-07 16:48 | 48.10639 | 16.15746 | 37984 ft | 442 kts | 290° |
| 2026-05-07 16:49 | 48.13030 | 16.07264 | 37988 ft | 442 kts | 290° |
| 2026-05-07 16:49 | 48.15011 | 16.00210 | 37998 ft | 442 kts | 290° |
| 2026-05-07 16:50 | 48.17388 | 15.91718 | 37988 ft | 442 kts | 290° |
| 2026-05-07 16:50 | 48.19763 | 15.83210 | 37992 ft | 442 kts | 290° |
| 2026-05-07 16:51 | 48.22125 | 15.74707 | 37991 ft | 442 kts | 290° |
| 2026-05-07 16:51 | 48.24484 | 15.66195 | 37981 ft | 442 kts | 290° |
| 2026-05-07 16:52 | 48.26837 | 15.57664 | 37984 ft | 443 kts | 290° |
| 2026-05-07 16:52 | 48.29185 | 15.49127 | 37972 ft | 443 kts | 290° |
| 2026-05-07 16:53 | 48.31528 | 15.40577 | 37990 ft | 443 kts | 290° |
| 2026-05-07 16:53 | 48.33865 | 15.32016 | 37997 ft | 443 kts | 290° |
| 2026-05-07 16:54 | 48.36197 | 15.23444 | 37997 ft | 443 kts | 290° |
| 2026-05-07 16:54 | 48.38526 | 15.14848 | 37998 ft | 444 kts | 289° |
| 2026-05-07 16:55 | 48.40849 | 15.06248 | 37989 ft | 444 kts | 289° |
| 2026-05-07 16:55 | 48.43165 | 14.97635 | 37997 ft | 444 kts | 289° |
| 2026-05-07 16:56 | 48.45476 | 14.89016 | 37999 ft | 444 kts | 289° |
| 2026-05-07 16:56 | 48.48915 | 14.76129 | 38001 ft | 444 kts | 289° |
| 2026-05-07 16:57 | 48.51209 | 14.67488 | 38009 ft | 444 kts | 289° |
| 2026-05-07 16:57 | 48.53499 | 14.58832 | 38009 ft | 444 kts | 289° |
| 2026-05-07 16:58 | 48.55782 | 14.50174 | 38012 ft | 444 kts | 289° |
| 2026-05-07 16:58 | 48.58059 | 14.41502 | 38015 ft | 444 kts | 289° |
| 2026-05-07 16:59 | 48.60327 | 14.32831 | 38018 ft | 444 kts | 289° |
| 2026-05-07 16:59 | 48.62589 | 14.24152 | 38020 ft | 444 kts | 289° |
| 2026-05-07 17:00 | 48.64845 | 14.15463 | 38018 ft | 444 kts | 289° |
| 2026-05-07 17:00 | 48.67095 | 14.06765 | 38018 ft | 444 kts | 289° |
| 2026-05-07 17:01 | 48.69340 | 13.98061 | 38016 ft | 444 kts | 289° |
| 2026-05-07 17:01 | 48.71580 | 13.89351 | 38021 ft | 444 kts | 289° |
| 2026-05-07 17:02 | 48.73812 | 13.80632 | 38018 ft | 444 kts | 289° |
| 2026-05-07 17:02 | 48.76038 | 13.71882 | 38015 ft | 444 kts | 288° |
| 2026-05-07 17:03 | 48.78134 | 13.63075 | 38018 ft | 445 kts | 288° |
| 2026-05-07 17:03 | 48.80240 | 13.54265 | 38018 ft | 444 kts | 288° |
| 2026-05-07 17:04 | 48.82342 | 13.45451 | 38018 ft | 444 kts | 288° |
| 2026-05-07 17:04 | 48.84439 | 13.36622 | 38018 ft | 445 kts | 288° |
| 2026-05-07 17:05 | 48.86516 | 13.27842 | 38017 ft | 445 kts | 288° |
| 2026-05-07 17:05 | 48.88599 | 13.19003 | 38014 ft | 445 kts | 288° |
| 2026-05-07 17:06 | 48.90676 | 13.10147 | 38017 ft | 445 kts | 288° |
| 2026-05-07 17:06 | 48.92746 | 13.01289 | 38024 ft | 445 kts | 288° |
| 2026-05-07 17:07 | 48.94809 | 12.92422 | 38023 ft | 445 kts | 288° |
| 2026-05-07 17:07 | 48.96867 | 12.83542 | 38036 ft | 445 kts | 288° |
| 2026-05-07 17:08 | 48.98920 | 12.74646 | 38035 ft | 445 kts | 288° |
| 2026-05-07 17:08 | 49.00962 | 12.65761 | 38037 ft | 445 kts | 287° |
| 2026-05-07 17:09 | 49.03000 | 12.56856 | 38037 ft | 445 kts | 287° |
| 2026-05-07 17:09 | 49.05033 | 12.47939 | 38036 ft | 445 kts | 287° |
| 2026-05-07 17:10 | 49.07058 | 12.39014 | 38037 ft | 446 kts | 287° |
| 2026-05-07 17:10 | 49.09077 | 12.30081 | 38038 ft | 445 kts | 287° |
| 2026-05-07 17:11 | 49.11088 | 12.21146 | 38031 ft | 445 kts | 287° |
| 2026-05-07 17:11 | 49.13094 | 12.12197 | 38033 ft | 445 kts | 287° |
| 2026-05-07 17:12 | 49.15093 | 12.03237 | 38035 ft | 446 kts | 287° |
| 2026-05-07 17:12 | 49.17082 | 11.94287 | 38035 ft | 446 kts | 287° |
| 2026-05-07 17:13 | 49.19065 | 11.85320 | 38036 ft | 446 kts | 287° |
| 2026-05-07 17:13 | 49.21046 | 11.76329 | 38039 ft | 446 kts | 287° |
| 2026-05-07 17:14 | 49.23004 | 11.67402 | 38038 ft | 446 kts | 287° |
| 2026-05-07 17:14 | 49.24969 | 11.58404 | 38034 ft | 446 kts | 287° |
| 2026-05-07 17:15 | 49.26926 | 11.49403 | 38035 ft | 446 kts | 287° |
| 2026-05-07 17:15 | 49.28877 | 11.40392 | 38035 ft | 446 kts | 287° |
| 2026-05-07 17:16 | 49.30822 | 11.31369 | 38036 ft | 446 kts | 287° |
| 2026-05-07 17:16 | 49.32753 | 11.22373 | 38035 ft | 445 kts | 287° |
| 2026-05-07 17:17 | 49.34683 | 11.13351 | 38044 ft | 445 kts | 287° |
| 2026-05-07 17:17 | 49.36605 | 11.04328 | 38045 ft | 445 kts | 287° |
| 2026-05-07 17:18 | 49.38529 | 10.95291 | 38043 ft | 445 kts | 289° |
| 2026-05-07 17:18 | 49.41187 | 10.86721 | 38045 ft | 447 kts | 295° |
| 2026-05-07 17:19 | 49.43948 | 10.78180 | 38044 ft | 446 kts | 295° |
| 2026-05-07 17:19 | 49.46711 | 10.69640 | 38053 ft | 446 kts | 295° |
| 2026-05-07 17:20 | 49.49469 | 10.61084 | 38054 ft | 446 kts | 295° |
| 2026-05-07 17:20 | 49.52221 | 10.52519 | 38049 ft | 446 kts | 295° |
| 2026-05-07 17:21 | 49.54965 | 10.43949 | 38046 ft | 446 kts | 295° |
| 2026-05-07 17:21 | 49.57705 | 10.35363 | 38045 ft | 446 kts | 295° |
| 2026-05-07 17:22 | 49.60436 | 10.26775 | 38047 ft | 447 kts | 295° |
| 2026-05-07 17:22 | 49.63146 | 10.18225 | 38045 ft | 447 kts | 295° |
| 2026-05-07 17:23 | 49.65868 | 10.09608 | 38045 ft | 447 kts | 295° |
| 2026-05-07 17:23 | 49.68581 | 10.00986 | 38044 ft | 447 kts | 295° |
| 2026-05-07 17:24 | 49.71290 | 9.92349 | 38044 ft | 447 kts | 295° |
| 2026-05-07 17:24 | 49.73991 | 9.83705 | 38045 ft | 447 kts | 295° |
| 2026-05-07 17:25 | 49.76687 | 9.75051 | 38042 ft | 447 kts | 295° |
| 2026-05-07 17:25 | 49.79377 | 9.66383 | 38045 ft | 446 kts | 295° |
| 2026-05-07 17:26 | 49.82057 | 9.57720 | 38046 ft | 446 kts | 295° |
| 2026-05-07 17:26 | 49.84723 | 9.49070 | 38047 ft | 447 kts | 294° |
| 2026-05-07 17:27 | 49.87391 | 9.40381 | 38043 ft | 446 kts | 294° |
| 2026-05-07 17:27 | 49.90048 | 9.31698 | 38046 ft | 446 kts | 294° |
| 2026-05-07 17:28 | 49.92701 | 9.22998 | 38049 ft | 446 kts | 294° |
| 2026-05-07 17:28 | 49.95345 | 9.14297 | 38043 ft | 446 kts | 294° |
| 2026-05-07 17:29 | 49.97982 | 9.05590 | 38046 ft | 445 kts | 294° |
| 2026-05-07 17:29 | 50.00612 | 8.96874 | 38045 ft | 446 kts | 294° |
| 2026-05-07 17:30 | 50.03241 | 8.88140 | 38046 ft | 446 kts | 294° |
| 2026-05-07 17:30 | 50.05790 | 8.79345 | 38037 ft | 445 kts | 288° |
| 2026-05-07 17:31 | 50.07848 | 8.70321 | 38043 ft | 446 kts | 289° |
| 2026-05-07 17:31 | 50.09989 | 8.61228 | 38045 ft | 445 kts | 289° |
| 2026-05-07 17:32 | 50.12118 | 8.52205 | 38046 ft | 445 kts | 289° |
| 2026-05-07 17:32 | 50.13903 | 8.44612 | 38046 ft | 445 kts | 289° |
| 2026-05-07 17:33 | 50.16369 | 8.34078 | 38046 ft | 445 kts | 289° |
| 2026-05-07 17:33 | 50.18498 | 8.24942 | 38043 ft | 445 kts | 289° |
| 2026-05-07 17:34 | 50.20594 | 8.15912 | 38046 ft | 445 kts | 289° |
| 2026-05-07 17:34 | 50.22698 | 8.06850 | 38045 ft | 445 kts | 291° |
| 2026-05-07 17:35 | 50.25091 | 7.97923 | 38048 ft | 445 kts | 291° |
| 2026-05-07 17:35 | 50.27460 | 7.88920 | 38045 ft | 445 kts | 291° |
| 2026-05-07 17:36 | 50.29409 | 7.81473 | 38044 ft | 445 kts | 291° |
| 2026-05-07 17:36 | 50.32124 | 7.71048 | 38044 ft | 445 kts | 291° |
| 2026-05-07 17:37 | 50.34454 | 7.62069 | 38046 ft | 445 kts | 291° |
| 2026-05-07 17:37 | 50.36779 | 7.53070 | 38045 ft | 445 kts | 291° |
| 2026-05-07 17:38 | 50.39093 | 7.44076 | 38046 ft | 445 kts | 291° |
| 2026-05-07 17:38 | 50.41009 | 7.36607 | 38044 ft | 445 kts | 291° |
| 2026-05-07 17:39 | 50.43313 | 7.27588 | 38045 ft | 445 kts | 291° |
| 2026-05-07 17:39 | 50.45608 | 7.18569 | 38046 ft | 445 kts | 291° |
| 2026-05-07 17:40 | 50.47895 | 7.09545 | 38047 ft | 445 kts | 291° |
| 2026-05-07 17:40 | 50.50177 | 7.00507 | 38044 ft | 445 kts | 291° |
| 2026-05-07 17:41 | 50.52451 | 6.91460 | 38045 ft | 445 kts | 291° |
| 2026-05-07 17:41 | 50.54716 | 6.82414 | 38043 ft | 445 kts | 291° |
| 2026-05-07 17:42 | 50.56977 | 6.73345 | 38046 ft | 445 kts | 291° |
| 2026-05-07 17:42 | 50.59224 | 6.64300 | 38045 ft | 445 kts | 290° |
| 2026-05-07 17:43 | 50.61469 | 6.55224 | 38045 ft | 445 kts | 290° |
| 2026-05-07 17:43 | 50.63709 | 6.46132 | 38045 ft | 445 kts | 290° |
| 2026-05-07 17:44 | 50.65941 | 6.37035 | 38045 ft | 445 kts | 290° |
| 2026-05-07 17:44 | 50.68164 | 6.27933 | 38053 ft | 445 kts | 290° |
| 2026-05-07 17:45 | 50.70381 | 6.18821 | 38054 ft | 445 kts | 290° |
| 2026-05-07 17:45 | 50.72590 | 6.09705 | 38054 ft | 445 kts | 290° |
| 2026-05-07 17:46 | 50.74791 | 6.00583 | 38053 ft | 445 kts | 290° |
| 2026-05-07 17:46 | 50.76987 | 5.91447 | 38054 ft | 444 kts | 290° |
| 2026-05-07 17:47 | 50.79166 | 5.82337 | 38055 ft | 444 kts | 290° |
| 2026-05-07 17:47 | 50.81345 | 5.73194 | 38055 ft | 445 kts | 290° |
| 2026-05-07 17:48 | 50.83517 | 5.64041 | 38053 ft | 444 kts | 290° |
| 2026-05-07 17:48 | 50.85678 | 5.54893 | 38054 ft | 444 kts | 290° |
| 2026-05-07 17:49 | 50.87836 | 5.45721 | 38052 ft | 444 kts | 290° |
| 2026-05-07 17:49 | 50.89985 | 5.36550 | 38063 ft | 444 kts | 290° |
| 2026-05-07 17:50 | 50.92126 | 5.27370 | 38063 ft | 444 kts | 289° |
| 2026-05-07 17:50 | 50.94260 | 5.18183 | 38072 ft | 444 kts | 289° |
| 2026-05-07 17:51 | 50.96388 | 5.08983 | 38073 ft | 444 kts | 289° |
| 2026-05-07 17:51 | 50.98508 | 4.99775 | 38073 ft | 444 kts | 289° |
| 2026-05-07 17:52 | 51.00621 | 4.90559 | 38073 ft | 444 kts | 289° |
| 2026-05-07 17:52 | 51.02727 | 4.81336 | 38073 ft | 444 kts | 289° |
| 2026-05-07 17:53 | 51.04822 | 4.72118 | 38072 ft | 444 kts | 289° |
| 2026-05-07 17:53 | 51.06897 | 4.62950 | 38073 ft | 444 kts | 289° |
| 2026-05-07 17:54 | 51.08979 | 4.53708 | 38073 ft | 444 kts | 289° |
| 2026-05-07 17:54 | 51.11055 | 4.44453 | 38072 ft | 444 kts | 289° |
| 2026-05-07 17:55 | 51.13125 | 4.35187 | 38073 ft | 444 kts | 289° |
| 2026-05-07 17:55 | 51.15182 | 4.25934 | 38073 ft | 444 kts | 289° |
| 2026-05-07 17:56 | 51.17240 | 4.16636 | 38074 ft | 444 kts | 289° |
| 2026-05-07 17:56 | 51.19288 | 4.07344 | 38066 ft | 444 kts | 288° |
| 2026-05-07 17:57 | 51.20982 | 3.99625 | 38072 ft | 444 kts | 288° |
| 2026-05-07 17:57 | 51.23359 | 3.88745 | 38077 ft | 444 kts | 288° |
| 2026-05-07 17:58 | 51.25380 | 3.79450 | 38080 ft | 444 kts | 288° |
| 2026-05-07 17:58 | 51.27401 | 3.70114 | 38080 ft | 444 kts | 288° |
| 2026-05-07 17:59 | 51.29410 | 3.60787 | 38082 ft | 444 kts | 288° |
| 2026-05-07 17:59 | 51.31413 | 3.51445 | 38083 ft | 444 kts | 288° |
| 2026-05-07 18:00 | 51.33408 | 3.42103 | 38080 ft | 444 kts | 288° |
| 2026-05-07 18:00 | 51.35490 | 3.32808 | 38088 ft | 444 kts | 290° |
| 2026-05-07 18:01 | 51.37673 | 3.23573 | 38081 ft | 444 kts | 290° |
| 2026-05-07 18:01 | 51.39839 | 3.14307 | 38081 ft | 445 kts | 290° |
| 2026-05-07 18:02 | 51.43110 | 3.00406 | 38084 ft | 444 kts | 290° |
| 2026-05-07 18:03 | 51.45282 | 2.91136 | 38083 ft | 444 kts | 290° |
| 2026-05-07 18:03 | 51.47443 | 2.81868 | 38083 ft | 444 kts | 289° |
| 2026-05-07 18:03 | 51.48517 | 2.77251 | 37799 ft | 438 kts | 289° |
| 2026-05-07 18:04 | 51.49581 | 2.72662 | 37177 ft | 439 kts | 289° |
| 2026-05-07 18:04 | 51.50643 | 2.68076 | 36590 ft | 438 kts | 289° |
| 2026-05-07 18:04 | 51.51687 | 2.63558 | 36073 ft | 438 kts | 289° |
| 2026-05-07 18:04 | 51.52748 | 2.58954 | 35543 ft | 442 kts | 289° |
| 2026-05-07 18:05 | 51.53819 | 2.54304 | 35013 ft | 445 kts | 289° |
| 2026-05-07 18:05 | 51.54886 | 2.49651 | 34475 ft | 446 kts | 289° |
| 2026-05-07 18:05 | 51.55955 | 2.44976 | 33907 ft | 446 kts | 289° |
| 2026-05-07 18:05 | 51.57023 | 2.40300 | 33384 ft | 446 kts | 289° |
| 2026-05-07 18:06 | 51.58092 | 2.35616 | 32856 ft | 447 kts | 289° |
| 2026-05-07 18:06 | 51.59162 | 2.30923 | 32262 ft | 448 kts | 289° |
| 2026-05-07 18:06 | 51.60233 | 2.26214 | 31727 ft | 449 kts | 289° |
| 2026-05-07 18:06 | 51.61305 | 2.21494 | 31214 ft | 450 kts | 289° |
| 2026-05-07 18:07 | 51.62379 | 2.16751 | 30689 ft | 451 kts | 289° |
| 2026-05-07 18:07 | 51.63446 | 2.12028 | 30163 ft | 452 kts | 289° |
| 2026-05-07 18:07 | 51.64517 | 2.07264 | 29574 ft | 453 kts | 289° |
| 2026-05-07 18:07 | 51.65586 | 2.02504 | 29076 ft | 451 kts | 289° |
| 2026-05-07 18:08 | 51.66652 | 1.97742 | 28564 ft | 452 kts | 289° |
| 2026-05-07 18:08 | 51.67720 | 1.92963 | 28061 ft | 454 kts | 289° |
| 2026-05-07 18:08 | 51.68787 | 1.88175 | 27557 ft | 455 kts | 289° |
| 2026-05-07 18:08 | 51.69859 | 1.83359 | 27054 ft | 457 kts | 289° |
| 2026-05-07 18:09 | 51.70925 | 1.78556 | 26552 ft | 449 kts | 289° |
| 2026-05-07 18:09 | 51.71956 | 1.73897 | 26099 ft | 438 kts | 289° |
| 2026-05-07 18:09 | 51.72969 | 1.69313 | 25625 ft | 431 kts | 289° |
| 2026-05-07 18:09 | 51.73965 | 1.64793 | 25183 ft | 424 kts | 288° |
| 2026-05-07 18:10 | 51.74571 | 1.60267 | 25155 ft | 405 kts | 271° |
| 2026-05-07 18:10 | 51.74375 | 1.55839 | 25135 ft | 388 kts | 263° |
| 2026-05-07 18:10 | 51.74123 | 1.51593 | 25130 ft | 373 kts | 264° |
| 2026-05-07 18:10 | 51.73876 | 1.47510 | 25116 ft | 360 kts | 264° |
| 2026-05-07 18:11 | 51.73623 | 1.43486 | 24488 ft | 366 kts | 263° |
| 2026-05-07 18:11 | 51.73448 | 1.40746 | 23863 ft | 375 kts | 263° |
| 2026-05-07 18:11 | 51.73078 | 1.35057 | 22620 ft | 390 kts | 263° |
| 2026-05-07 18:11 | 51.72789 | 1.30662 | 21655 ft | 395 kts | 263° |
| 2026-05-07 18:12 | 51.72500 | 1.26280 | 20735 ft | 391 kts | 263° |
| 2026-05-07 18:12 | 51.72211 | 1.21929 | 19817 ft | 388 kts | 263° |
| 2026-05-07 18:12 | 51.71924 | 1.17636 | 19058 ft | 381 kts | 263° |
| 2026-05-07 18:12 | 51.71643 | 1.13448 | 18476 ft | 370 kts | 263° |
| 2026-05-07 18:13 | 51.71368 | 1.09381 | 17925 ft | 360 kts | 263° |
| 2026-05-07 18:13 | 51.71100 | 1.05426 | 17398 ft | 350 kts | 263° |
| 2026-05-07 18:13 | 51.70838 | 1.01582 | 16892 ft | 343 kts | 263° |
| 2026-05-07 18:13 | 51.70576 | 0.97754 | 16376 ft | 344 kts | 263° |
| 2026-05-07 18:14 | 51.70313 | 0.93942 | 16061 ft | 340 kts | 263° |
| 2026-05-07 18:14 | 51.70057 | 0.90242 | 16081 ft | 324 kts | 263° |
| 2026-05-07 18:14 | 51.69810 | 0.86699 | 16082 ft | 314 kts | 263° |
| 2026-05-07 18:14 | 51.69567 | 0.83211 | 16033 ft | 312 kts | 263° |
| 2026-05-07 18:15 | 51.69316 | 0.79643 | 14879 ft | 328 kts | 263° |
| 2026-05-07 18:15 | 51.69062 | 0.76030 | 14309 ft | 322 kts | 263° |
| 2026-05-07 18:15 | 51.68809 | 0.72456 | 13648 ft | 320 kts | 263° |
| 2026-05-07 18:15 | 51.68558 | 0.68923 | 13126 ft | 315 kts | 263° |
| 2026-05-07 18:16 | 51.68308 | 0.65423 | 12703 ft | 315 kts | 263° |
| 2026-05-07 18:16 | 51.68057 | 0.61918 | 12311 ft | 314 kts | 263° |
| 2026-05-07 18:16 | 51.67808 | 0.58473 | 11937 ft | 313 kts | 263° |
| 2026-05-07 18:16 | 51.67558 | 0.55004 | 11552 ft | 312 kts | 263° |
| 2026-05-07 18:17 | 51.67306 | 0.51535 | 11166 ft | 312 kts | 263° |
| 2026-05-07 18:17 | 51.67054 | 0.48072 | 10771 ft | 311 kts | 263° |
| 2026-05-07 18:17 | 51.66800 | 0.44604 | 10327 ft | 312 kts | 263° |
| 2026-05-07 18:17 | 51.66545 | 0.41140 | 9932 ft | 308 kts | 263° |
| 2026-05-07 18:18 | 51.66297 | 0.37775 | 9570 ft | 297 kts | 263° |
| 2026-05-07 18:18 | 51.66056 | 0.34531 | 9214 ft | 286 kts | 263° |
| 2026-05-07 18:18 | 51.65822 | 0.31382 | 8878 ft | 283 kts | 263° |
| 2026-05-07 18:18 | 51.65587 | 0.28226 | 8527 ft | 285 kts | 263° |
| 2026-05-07 18:19 | 51.65367 | 0.25056 | 8178 ft | 284 kts | 265° |
| 2026-05-07 18:19 | 51.65228 | 0.21925 | 8065 ft | 277 kts | 266° |
| 2026-05-07 18:19 | 51.65099 | 0.18805 | 8062 ft | 283 kts | 266° |
| 2026-05-07 18:19 | 51.64967 | 0.15622 | 8062 ft | 288 kts | 266° |
| 2026-05-07 18:20 | 51.64833 | 0.12392 | 8074 ft | 290 kts | 266° |
| 2026-05-07 18:20 | 51.64697 | 0.09152 | 8078 ft | 290 kts | 266° |
| 2026-05-07 18:20 | 51.64561 | 0.05910 | 8060 ft | 290 kts | 266° |
| 2026-05-07 18:20 | 51.64426 | 0.02688 | 8071 ft | 290 kts | 266° |
| 2026-05-07 18:21 | 51.64289 | -0.00560 | 8076 ft | 290 kts | 266° |
| 2026-05-07 18:21 | 51.64151 | -0.03800 | 8069 ft | 290 kts | 266° |
| 2026-05-07 18:21 | 51.64013 | -0.07038 | 8049 ft | 290 kts | 266° |
| 2026-05-07 18:21 | 51.63875 | -0.10272 | 8064 ft | 290 kts | 266° |
| 2026-05-07 18:22 | 51.63737 | -0.13510 | 8072 ft | 290 kts | 266° |
| 2026-05-07 18:22 | 51.63690 | -0.14609 | 8076 ft | 290 kts | 266° |
| 2026-05-07 18:22 | 51.63458 | -0.19985 | 8008 ft | 290 kts | 266° |
| 2026-05-07 18:22 | 51.63320 | -0.23180 | 7660 ft | 288 kts | 266° |
| 2026-05-07 18:23 | 51.63183 | -0.26382 | 7378 ft | 285 kts | 266° |
| 2026-05-07 18:23 | 51.63047 | -0.29567 | 7100 ft | 284 kts | 266° |
| 2026-05-07 18:23 | 51.62955 | -0.31711 | 7051 ft | 284 kts | 266° |
| 2026-05-07 18:23 | 51.62777 | -0.35919 | 7049 ft | 285 kts | 266° |
| 2026-05-07 18:24 | 51.62685 | -0.38079 | 7052 ft | 286 kts | 266° |
| 2026-05-07 18:24 | 51.62550 | -0.41223 | 7054 ft | 286 kts | 266° |
| 2026-05-07 18:24 | 51.62414 | -0.44413 | 7046 ft | 286 kts | 266° |
| 2026-05-07 18:24 | 51.62277 | -0.47596 | 7045 ft | 286 kts | 265° |
| 2026-05-07 18:25 | 51.62139 | -0.50791 | 7047 ft | 286 kts | 266° |
| 2026-05-07 18:25 | 51.62002 | -0.53977 | 7049 ft | 286 kts | 265° |
| 2026-05-07 18:25 | 51.61865 | -0.57162 | 7044 ft | 285 kts | 265° |
| 2026-05-07 18:25 | 51.61725 | -0.60388 | 7041 ft | 285 kts | 265° |
| 2026-05-07 18:26 | 51.61588 | -0.63518 | 7045 ft | 286 kts | 265° |
| 2026-05-07 18:26 | 51.61449 | -0.66701 | 7047 ft | 283 kts | 265° |
| 2026-05-07 18:26 | 51.61314 | -0.69782 | 6917 ft | 270 kts | 265° |
| 2026-05-07 18:26 | 51.61186 | -0.72738 | 6606 ft | 260 kts | 265° |
| 2026-05-07 18:27 | 51.61050 | -0.75580 | 6328 ft | 250 kts | 261° |
| 2026-05-07 18:27 | 51.60512 | -0.78145 | 6079 ft | 237 kts | 242° |
| 2026-05-07 18:27 | 51.59620 | -0.80278 | 5830 ft | 225 kts | 220° |
| 2026-05-07 18:27 | 51.58279 | -0.81320 | 5683 ft | 206 kts | 189° |
| 2026-05-07 18:28 | 51.56896 | -0.81457 | 5549 ft | 194 kts | 181° |
| 2026-05-07 18:28 | 51.55561 | -0.81482 | 5265 ft | 192 kts | 180° |
| 2026-05-07 18:28 | 51.54232 | -0.81506 | 4945 ft | 190 kts | 181° |
| 2026-05-07 18:28 | 51.52908 | -0.81534 | 4614 ft | 190 kts | 180° |
| 2026-05-07 18:29 | 51.51589 | -0.81568 | 4321 ft | 189 kts | 181° |
| 2026-05-07 18:29 | 51.50287 | -0.81603 | 4082 ft | 187 kts | 179° |
| 2026-05-07 18:29 | 51.49055 | -0.81045 | 3829 ft | 187 kts | 144° |
| 2026-05-07 18:29 | 51.48220 | -0.79477 | 3617 ft | 187 kts | 122° |
| 2026-05-07 18:30 | 51.47711 | -0.77566 | 3397 ft | 187 kts | 102° |
| 2026-05-07 18:30 | 51.47617 | -0.75489 | 3211 ft | 187 kts | 90° |
| 2026-05-07 18:30 | 51.47651 | -0.73405 | 3006 ft | 187 kts | 90° |
| 2026-05-07 18:30 | 51.47668 | -0.71325 | 2780 ft | 186 kts | 90° |
| 2026-05-07 18:31 | 51.47676 | -0.69327 | 2571 ft | 173 kts | 90° |
| 2026-05-07 18:31 | 51.47681 | -0.67471 | 2386 ft | 164 kts | 91° |
| 2026-05-07 18:31 | 51.47688 | -0.65654 | 2181 ft | 162 kts | 91° |
| 2026-05-07 18:31 | 51.47696 | -0.63856 | 1983 ft | 161 kts | 90° |
| 2026-05-07 18:32 | 51.47701 | -0.62060 | 1747 ft | 161 kts | 90° |
| 2026-05-07 18:32 | 51.47706 | -0.60309 | 1539 ft | 153 kts | 91° |
| 2026-05-07 18:32 | 51.47713 | -0.58632 | 1335 ft | 148 kts | 91° |
| 2026-05-07 18:32 | 51.47719 | -0.56990 | 1147 ft | 148 kts | 91° |
| 2026-05-07 18:33 | 51.47724 | -0.55347 | 946 ft | 147 kts | 91° |
| 2026-05-07 18:33 | 51.47730 | -0.53704 | 754 ft | 147 kts | 91° |
| 2026-05-07 18:33 | 51.47738 | -0.52069 | 554 ft | 147 kts | 90° |
| 2026-05-07 18:33 | 51.47752 | -0.50437 | 363 ft | 146 kts | 91° |
| 2026-05-07 18:34 | 51.47751 | -0.48807 | 165 ft | 146 kts | 90° |
| 2026-05-07 18:34 | 51.47761 | -0.47244 | 88 ft | 128 kts | 91° |
| 2026-05-07 18:34 | 51.47761 | -0.45972 | 87 ft | 90 kts | 89° |
| 2026-05-07 18:34 | 51.47742 | -0.45502 | 88 ft | 17 kts | 126° |
| 2026-05-07 18:35 | 51.47670 | -0.45466 | 88 ft | 0 kts | 180° |
| 2026-05-07 18:35 | 51.47664 | -0.45466 | 88 ft | 0 kts | 180° |
| 2026-05-07 18:35 | 51.47663 | -0.45466 | 88 ft | 1 kts | 180° |
| 2026-05-07 18:35 | 51.47650 | -0.45466 | 88 ft | 3 kts | 180° |
| 2026-05-07 18:36 | 51.47638 | -0.45466 | 88 ft | 1 kts | 180° |
| 2026-05-07 18:36 | 51.47621 | -0.45466 | 88 ft | 4 kts | 180° |
| 2026-05-07 18:36 | 51.47586 | -0.45466 | 88 ft | 6 kts | 180° |
| 2026-05-07 18:36 | 51.47533 | -0.45461 | 89 ft | 9 kts | 162° |
| 2026-05-07 18:37 | 51.47508 | -0.45382 | 91 ft | 9 kts | 89° |
| 2026-05-07 18:37 | 51.47509 | -0.45262 | 92 ft | 12 kts | 89° |
| 2026-05-07 18:37 | 51.47510 | -0.45113 | 89 ft | 14 kts | 89° |
| 2026-05-07 18:37 | 51.47510 | -0.44939 | 89 ft | 16 kts | 89° |
| 2026-05-07 18:38 | 51.47511 | -0.44748 | 89 ft | 18 kts | 90° |
| 2026-05-07 18:38 | 51.47496 | -0.44586 | 89 ft | 11 kts | 132° |
| 2026-05-07 18:38 | 51.47430 | -0.44560 | 91 ft | 11 kts | 179° |
| 2026-05-07 18:38 | 51.47346 | -0.44559 | 90 ft | 13 kts | 180° |
| 2026-05-07 18:39 | 51.47246 | -0.44558 | 89 ft | 15 kts | 180° |
| 2026-05-07 18:39 | 51.47130 | -0.44557 | 89 ft | 18 kts | 180° |
| 2026-05-07 18:39 | 51.47013 | -0.44557 | 89 ft | 14 kts | 180° |
| 2026-05-07 18:39 | 51.46944 | -0.44543 | 89 ft | 7 kts | 137° |
| 2026-05-07 18:40 | 51.46936 | -0.44475 | 89 ft | 6 kts | 86° |
| 2026-05-07 18:40 | 51.46938 | -0.44426 | 89 ft | 3 kts | 89° |
| 2026-05-07 18:40 | 51.46938 | -0.44409 | 89 ft | 0 kts | 89° |
| 2026-05-07 18:41 | 51.46938 | -0.44398 | 90 ft | 0 kts | 89° |